Time;durP1;ratioP1;P1;durP2;ratioP2;P2;SDS_P1;SDS_P2;PMS_P1;PMS_P2;Temp;Humidity;BMP_temperature;BMP_pressure;BME280_temperature;BME280_humidity;BME280_pressure;Samples;Min_cycle;Max_cycle;Signal;HPM_P1;HPM_P2
2021/03/29 00:00:48;;;;;;;2.97;1.90;;;;;;;;;;5008004;28;20212;-79
2021/03/29 00:03:14;;;;;;;5.03;2.90;;;;;;;;;;5016068;28;20206;-79
2021/03/29 00:05:40;;;;;;;4.43;1.90;;;;;;;;;;5027072;28;20179;-80
2021/03/29 00:08:06;;;;;;;3.63;2.28;;;;;;;;;;5012635;28;20185;-80
2021/03/29 00:10:33;;;;;;;2.75;2.10;;;;;;;;;;5004060;28;20174;-78
2021/03/29 00:12:59;;;;;;;5.07;2.17;;;;;;;;;;5007430;28;20183;-78
2021/03/29 00:15:29;;;;;;;2.75;1.80;;;;;;;;;;5004298;28;20183;-78
2021/03/29 00:17:55;;;;;;;3.90;1.95;;;;;;;;;;5028038;28;20247;-78
2021/03/29 00:20:24;;;;;;;4.47;2.63;;;;;;;;;;5001120;28;20583;-79
2021/03/29 00:22:51;;;;;;;7.63;1.95;;;;;;;;;;5014189;28;20178;-79
2021/03/29 00:25:17;;;;;;;3.88;1.65;;;;;;;;;;5005413;28;20210;-78
2021/03/29 00:27:44;;;;;;;6.13;1.95;;;;;;;;;;5002326;28;20188;-78
2021/03/29 00:30:15;;;;;;;2.92;1.75;;;;;;;;;;5024732;28;20637;-80
2021/03/29 00:32:43;;;;;;;3.55;1.80;;;;;;;;;;5002434;28;20187;-79
2021/03/29 00:35:10;;;;;;;5.05;2.55;;;;;;;;;;5001591;28;20178;-78
2021/03/29 00:37:37;;;;;;;3.47;1.92;;;;;;;;;;5002501;28;20182;-78
2021/03/29 00:40:04;;;;;;;4.85;1.90;;;;;;;;;;5002921;28;20192;-77
2021/03/29 00:42:31;;;;;;;2.13;1.45;;;;;;;;;;4997200;28;20278;-77
2021/03/29 00:44:57;;;;;;;1.75;1.65;;;;;;;;;;5016616;28;20190;-77
2021/03/29 00:47:23;;;;;;;8.80;2.33;;;;;;;;;;5010883;28;20487;-78
2021/03/29 00:49:49;;;;;;;4.05;1.92;;;;;;;;;;5009590;28;20175;-78
2021/03/29 00:52:16;;;;;;;4.07;2.10;;;;;;;;;;5005723;28;20186;-77
2021/03/29 00:54:42;;;;;;;3.55;2.15;;;;;;;;;;5008564;28;20214;-77
2021/03/29 00:57:08;;;;;;;3.63;2.05;;;;;;;;;;5026765;28;20231;-78
2021/03/29 00:59:35;;;;;;;2.20;1.95;;;;;;;;;;5007113;28;20195;-78
2021/03/29 01:02:01;;;;;;;3.15;2.20;;;;;;;;;;5001223;28;20270;-78
2021/03/29 01:04:27;;;;;;;5.75;1.80;;;;;;;;;;4999206;28;20193;-78
2021/03/29 01:06:54;;;;;;;3.88;2.03;;;;;;;;;;5000789;28;20254;-78
2021/03/29 01:09:22;;;;;;;4.93;2.03;;;;;;;;;;5004447;28;20198;-79
2021/03/29 01:12:00;;;;;;;2.80;1.85;;;;;;;;;;5016177;28;20222;-79
2021/03/29 01:14:39;;;;;;;1.80;1.63;;;;;;;;;;5000182;28;20193;-79
2021/03/29 01:17:12;;;;;;;4.25;2.30;;;;;;;;;;5000402;28;20189;-81
2021/03/29 01:19:50;;;;;;;3.58;2.00;;;;;;;;;;4996090;28;20191;-81
2021/03/29 01:22:18;;;;;;;4.07;2.80;;;;;;;;;;5007478;28;20715;-79
2021/03/29 01:24:54;;;;;;;4.28;2.33;;;;;;;;;;5007706;28;20206;-78
2021/03/29 01:27:30;;;;;;;3.65;1.33;;;;;;;;;;5003617;28;20186;-80
2021/03/29 01:29:57;;;;;;;5.15;1.60;;;;;;;;;;5001912;28;20187;-81
2021/03/29 01:32:23;;;;;;;2.58;1.45;;;;;;;;;;5016837;28;20182;-78
2021/03/29 01:34:50;;;;;;;4.10;1.95;;;;;;;;;;5015549;28;20180;-79
2021/03/29 01:37:16;;;;;;;2.35;1.80;;;;;;;;;;5002799;28;20190;-78
2021/03/29 01:39:43;;;;;;;3.10;1.70;;;;;;;;;;5008150;28;20196;-79
2021/03/29 01:42:10;;;;;;;1.63;1.50;;;;;;;;;;5029127;28;20736;-78
2021/03/29 01:44:36;;;;;;;2.20;1.70;;;;;;;;;;4999789;28;20183;-78
2021/03/29 01:47:03;;;;;;;2.28;1.83;;;;;;;;;;5000793;28;20286;-78
2021/03/29 01:49:29;;;;;;;1.80;1.70;;;;;;;;;;5013137;28;20187;-79
2021/03/29 01:51:55;;;;;;;4.05;2.10;;;;;;;;;;4999179;28;20192;-79
2021/03/29 01:54:22;;;;;;;2.40;2.00;;;;;;;;;;5003681;28;20255;-78
2021/03/29 01:56:48;;;;;;;3.28;1.65;;;;;;;;;;5000289;28;20194;-78
2021/03/29 01:59:14;;;;;;;3.10;1.85;;;;;;;;;;4999285;28;20186;-78
2021/03/29 02:01:40;;;;;;;2.90;1.75;;;;;;;;;;5000090;28;20206;-78
2021/03/29 02:04:07;;;;;;;4.50;1.65;;;;;;;;;;5002765;28;20210;-78
2021/03/29 02:06:33;;;;;;;2.83;2.05;;;;;;;;;;5007600;28;21354;-77
2021/03/29 02:09:00;;;;;;;5.82;2.28;;;;;;;;;;5013464;28;20194;-77
2021/03/29 02:11:26;;;;;;;2.03;1.42;;;;;;;;;;5007993;28;20242;-77
2021/03/29 02:13:54;;;;;;;2.40;1.95;;;;;;;;;;5008369;28;20178;-78
2021/03/29 02:16:20;;;;;;;3.42;1.95;;;;;;;;;;5004637;28;20213;-77
2021/03/29 02:18:48;;;;;;;2.83;1.70;;;;;;;;;;5001331;28;20191;-77
2021/03/29 02:21:16;;;;;;;3.10;2.00;;;;;;;;;;5002958;28;20700;-77
2021/03/29 02:23:42;;;;;;;3.75;1.80;;;;;;;;;;5024811;28;20553;-77
2021/03/29 02:26:11;;;;;;;3.47;1.70;;;;;;;;;;5009763;28;20174;-78
2021/03/29 02:28:39;;;;;;;4.68;1.60;;;;;;;;;;4998955;28;20261;-77
2021/03/29 02:31:06;;;;;;;6.43;2.10;;;;;;;;;;5002009;28;20182;-78
2021/03/29 02:33:32;;;;;;;6.75;2.80;;;;;;;;;;5002082;28;20222;-77
2021/03/29 02:35:58;;;;;;;3.28;1.92;;;;;;;;;;5000787;28;20266;-77
2021/03/29 02:38:24;;;;;;;3.92;1.90;;;;;;;;;;5008780;28;20186;-77
2021/03/29 02:40:52;;;;;;;5.50;1.70;;;;;;;;;;5007150;28;20210;-78
2021/03/29 02:43:19;;;;;;;2.75;1.90;;;;;;;;;;5004060;28;20185;-78
2021/03/29 02:45:55;;;;;;;6.53;2.20;;;;;;;;;;5006108;28;20180;-78
2021/03/29 02:48:23;;;;;;;2.47;1.63;;;;;;;;;;4992028;28;20238;-78
2021/03/29 02:50:50;;;;;;;4.07;2.00;;;;;;;;;;5025382;28;20179;-78
2021/03/29 02:53:18;;;;;;;1.58;1.20;;;;;;;;;;5007382;28;20217;-78
2021/03/29 02:55:44;;;;;;;3.40;1.88;;;;;;;;;;4998347;28;20183;-77
2021/03/29 02:58:10;;;;;;;3.20;1.88;;;;;;;;;;5000933;28;20390;-77
2021/03/29 03:00:37;;;;;;;8.70;1.92;;;;;;;;;;5007020;28;20191;-78
2021/03/29 03:03:04;;;;;;;3.28;2.03;;;;;;;;;;5027815;28;20183;-78
2021/03/29 03:05:32;;;;;;;3.38;2.15;;;;;;;;;;4997761;28;20180;-78
2021/03/29 03:07:58;;;;;;;2.72;2.00;;;;;;;;;;4998571;28;20259;-78
2021/03/29 03:10:24;;;;;;;2.03;1.83;;;;;;;;;;5001926;28;20182;-78
2021/03/29 03:12:51;;;;;;;3.80;1.95;;;;;;;;;;5003663;28;20215;-78
2021/03/29 03:15:21;;;;;;;5.85;2.10;;;;;;;;;;5002803;28;20179;-78
2021/03/29 03:17:48;;;;;;;3.38;2.50;;;;;;;;;;4999379;28;20183;-78
2021/03/29 03:20:15;;;;;;;2.65;2.08;;;;;;;;;;4987787;28;20199;-78
2021/03/29 03:22:54;;;;;;;3.38;2.60;;;;;;;;;;5009735;28;20207;-78
2021/03/29 03:25:22;;;;;;;2.90;1.90;;;;;;;;;;5000138;28;20554;-78
2021/03/29 03:27:48;;;;;;;4.53;2.08;;;;;;;;;;5010862;28;20223;-78
2021/03/29 03:30:18;;;;;;;5.10;2.63;;;;;;;;;;5020110;28;20175;-78
2021/03/29 03:32:44;;;;;;;6.15;2.10;;;;;;;;;;5021770;28;20187;-78
2021/03/29 03:35:11;;;;;;;3.22;1.60;;;;;;;;;;5005289;28;20246;-78
2021/03/29 03:37:38;;;;;;;7.85;2.60;;;;;;;;;;5016246;28;20188;-78
2021/03/29 03:40:05;;;;;;;2.65;2.15;;;;;;;;;;5016353;28;20191;-78
2021/03/29 03:42:32;;;;;;;3.47;2.17;;;;;;;;;;5015449;28;20225;-78
2021/03/29 03:44:59;;;;;;;2.30;2.10;;;;;;;;;;5022572;28;20206;-78
2021/03/29 03:47:26;;;;;;;2.17;1.65;;;;;;;;;;5004059;28;20185;-77
2021/03/29 03:49:52;;;;;;;2.50;2.30;;;;;;;;;;5005456;28;20380;-77
2021/03/29 03:52:18;;;;;;;2.28;1.92;;;;;;;;;;5004067;28;20191;-77
2021/03/29 03:54:44;;;;;;;2.30;1.70;;;;;;;;;;5005619;28;20226;-78
2021/03/29 03:57:10;;;;;;;3.38;2.30;;;;;;;;;;5019774;28;20216;-78
2021/03/29 03:59:36;;;;;;;2.90;1.70;;;;;;;;;;5015037;28;20660;-78
2021/03/29 04:02:07;;;;;;;4.37;1.70;;;;;;;;;;5018793;28;20517;-78
2021/03/29 04:04:34;;;;;;;3.92;1.75;;;;;;;;;;5011161;28;20441;-78
2021/03/29 04:07:01;;;;;;;5.82;2.55;;;;;;;;;;5010679;28;20187;-78
2021/03/29 04:10:06;;;;;;;2.80;2.30;;;;;;;;;;5016221;28;20187;-78
2021/03/29 04:12:19;;;;;;;3.58;2.40;;;;;;;;;;5016458;28;20267;-78
2021/03/29 04:14:45;;;;;;;3.50;1.90;;;;;;;;;;5005271;28;20218;-78
2021/03/29 04:17:11;;;;;;;4.40;2.30;;;;;;;;;;5004222;28;20183;-77
2021/03/29 04:19:37;;;;;;;2.65;1.85;;;;;;;;;;5014899;28;20474;-77
2021/03/29 04:22:04;;;;;;;2.20;2.00;;;;;;;;;;5008894;28;20214;-77
2021/03/29 04:24:30;;;;;;;2.20;2.00;;;;;;;;;;5005478;28;20182;-77
2021/03/29 04:26:56;;;;;;;3.25;2.42;;;;;;;;;;5016578;28;20713;-77
2021/03/29 04:29:26;;;;;;;2.78;1.77;;;;;;;;;;5004113;28;20183;-77
2021/03/29 04:31:52;;;;;;;4.93;2.30;;;;;;;;;;5006269;28;20243;-77
2021/03/29 04:34:18;;;;;;;3.40;2.10;;;;;;;;;;5004029;28;20271;-77
2021/03/29 04:36:44;;;;;;;3.28;2.38;;;;;;;;;;5003968;28;20191;-77
2021/03/29 04:39:10;;;;;;;10.15;1.90;;;;;;;;;;5005000;28;20252;-77
2021/03/29 04:41:36;;;;;;;5.23;2.43;;;;;;;;;;5010204;28;20207;-77
2021/03/29 04:44:02;;;;;;;3.15;1.70;;;;;;;;;;5022047;28;20779;-77
2021/03/29 04:46:28;;;;;;;3.78;2.47;;;;;;;;;;5007587;28;20205;-77
2021/03/29 04:48:54;;;;;;;3.30;2.38;;;;;;;;;;5007282;28;20176;-78
2021/03/29 04:51:20;;;;;;;3.97;2.40;;;;;;;;;;5015035;28;20263;-77
2021/03/29 04:53:46;;;;;;;2.53;2.17;;;;;;;;;;5001825;28;20253;-77
2021/03/29 04:56:12;;;;;;;2.90;1.93;;;;;;;;;;5015268;28;20179;-77
2021/03/29 04:58:38;;;;;;;3.60;2.92;;;;;;;;;;5000739;28;20454;-77
2021/03/29 05:01:04;;;;;;;1.92;1.75;;;;;;;;;;5002397;28;20218;-77
2021/03/29 05:03:30;;;;;;;7.03;2.58;;;;;;;;;;5009505;28;20184;-77
2021/03/29 05:05:56;;;;;;;7.30;2.05;;;;;;;;;;5004028;28;20703;-78
2021/03/29 05:08:22;;;;;;;4.13;2.50;;;;;;;;;;4999720;28;20210;-77
2021/03/29 05:10:48;;;;;;;4.28;2.33;;;;;;;;;;5016102;28;20222;-77
2021/03/29 05:13:14;;;;;;;5.82;1.88;;;;;;;;;;5000755;28;20577;-77
2021/03/29 05:15:40;;;;;;;4.57;2.30;;;;;;;;;;5003163;28;20226;-77
2021/03/29 05:18:06;;;;;;;3.40;2.00;;;;;;;;;;5004981;28;20217;-77
2021/03/29 05:20:32;;;;;;;5.03;2.20;;;;;;;;;;5009955;28;20203;-77
2021/03/29 05:22:58;;;;;;;3.90;1.75;;;;;;;;;;5010089;28;20662;-77
2021/03/29 05:25:24;;;;;;;2.60;1.90;;;;;;;;;;5005816;28;20253;-77
2021/03/29 05:27:50;;;;;;;3.10;2.17;;;;;;;;;;5007282;28;20190;-77
2021/03/29 05:30:16;;;;;;;4.55;2.13;;;;;;;;;;5003364;28;20655;-77
2021/03/29 05:32:42;;;;;;;3.50;2.38;;;;;;;;;;5031859;28;20537;-77
2021/03/29 05:35:08;;;;;;;2.30;2.10;;;;;;;;;;5011408;28;20564;-77
2021/03/29 05:37:34;;;;;;;3.20;2.30;;;;;;;;;;5005190;28;20194;-77
2021/03/29 05:40:01;;;;;;;3.10;2.30;;;;;;;;;;5005427;28;20211;-77
2021/03/29 05:42:29;;;;;;;2.38;2.17;;;;;;;;;;5007296;28;20211;-78
2021/03/29 05:45:04;;;;;;;7.05;2.53;;;;;;;;;;5012657;28;20186;-78
2021/03/29 05:47:30;;;;;;;2.90;2.03;;;;;;;;;;4998023;28;20185;-78
2021/03/29 05:49:58;;;;;;;4.57;1.85;;;;;;;;;;5000495;28;20238;-78
2021/03/29 05:52:24;;;;;;;6.63;3.00;;;;;;;;;;4999254;28;20237;-78
2021/03/29 05:54:50;;;;;;;5.95;2.60;;;;;;;;;;5000066;28;20187;-78
2021/03/29 05:57:18;;;;;;;5.15;2.33;;;;;;;;;;5001034;28;20215;-78
2021/03/29 05:59:44;;;;;;;7.60;2.63;;;;;;;;;;5013495;28;20183;-78
2021/03/29 06:02:10;;;;;;;4.22;2.75;;;;;;;;;;5009352;28;20202;-79
2021/03/29 06:04:49;;;;;;;6.40;2.17;;;;;;;;;;5012388;28;20171;-77
2021/03/29 06:07:17;;;;;;;2.90;2.60;;;;;;;;;;5006101;28;20186;-77
2021/03/29 06:09:43;;;;;;;3.95;2.03;;;;;;;;;;5011786;28;20188;-76
2021/03/29 06:12:14;;;;;;;2.63;2.22;;;;;;;;;;5004635;28;20693;-79
2021/03/29 06:14:41;;;;;;;7.25;2.28;;;;;;;;;;5009954;28;20189;-79
2021/03/29 06:17:07;;;;;;;4.70;3.40;;;;;;;;;;4996673;28;20243;-78
2021/03/29 06:19:36;;;;;;;4.63;2.28;;;;;;;;;;5003607;28;20206;-78
2021/03/29 06:22:08;;;;;;;7.50;3.28;;;;;;;;;;5002762;28;20204;-78
2021/03/29 06:24:53;;;;;;;3.55;2.67;;;;;;;;;;5000959;28;20191;-78
2021/03/29 06:27:19;;;;;;;4.35;2.65;;;;;;;;;;4993197;28;20195;-78
2021/03/29 06:29:45;;;;;;;6.97;2.80;;;;;;;;;;4999791;28;20198;-78
2021/03/29 06:32:12;;;;;;;6.55;2.80;;;;;;;;;;5002516;28;20178;-78
2021/03/29 06:34:38;;;;;;;8.65;3.85;;;;;;;;;;5005207;28;20214;-77
2021/03/29 06:37:07;;;;;;;6.13;3.30;;;;;;;;;;5005525;28;20245;-78
2021/03/29 06:39:38;;;;;;;4.00;2.80;;;;;;;;;;5008730;28;20188;-78
2021/03/29 06:42:04;;;;;;;5.15;3.03;;;;;;;;;;5008393;28;20208;-78
2021/03/29 06:44:31;;;;;;;3.95;2.80;;;;;;;;;;5001919;28;20194;-77
2021/03/29 06:47:11;;;;;;;4.35;3.00;;;;;;;;;;4997259;28;20179;-78
2021/03/29 06:49:38;;;;;;;5.97;2.65;;;;;;;;;;5004392;28;20178;-78
2021/03/29 06:52:21;;;;;;;4.35;2.92;;;;;;;;;;5004158;28;20243;-79
2021/03/29 06:54:47;;;;;;;7.53;3.10;;;;;;;;;;5003461;28;20184;-79
2021/03/29 06:57:13;;;;;;;3.25;2.42;;;;;;;;;;5002773;28;20664;-79
2021/03/29 06:59:39;;;;;;;6.65;3.15;;;;;;;;;;5000437;28;20218;-78
2021/03/29 07:02:07;;;;;;;3.80;3.40;;;;;;;;;;4991537;28;20203;-78
2021/03/29 07:04:35;;;;;;;3.90;3.35;;;;;;;;;;5001583;28;20192;-78
2021/03/29 07:07:02;;;;;;;6.60;3.10;;;;;;;;;;5006362;28;20207;-80
2021/03/29 07:09:32;;;;;;;6.10;3.50;;;;;;;;;;4995286;28;20203;-79
2021/03/29 07:11:59;;;;;;;6.63;4.13;;;;;;;;;;4990965;28;20222;-80
2021/03/29 07:14:25;;;;;;;10.45;5.53;;;;;;;;;;5001792;28;20199;-79
2021/03/29 07:16:54;;;;;;;10.77;5.63;;;;;;;;;;4994721;28;20183;-79
2021/03/29 07:19:21;;;;;;;7.10;3.47;;;;;;;;;;5011416;28;20536;-79
2021/03/29 07:21:48;;;;;;;9.25;3.22;;;;;;;;;;4988701;28;20574;-78
2021/03/29 07:24:14;;;;;;;8.43;3.80;;;;;;;;;;5013880;28;20210;-78
2021/03/29 07:26:43;;;;;;;3.38;3.10;;;;;;;;;;5024208;28;20191;-79
2021/03/29 07:29:37;;;;;;;5.80;2.95;;;;;;;;;;5008640;28;20193;-79
2021/03/29 07:32:25;;;;;;;5.35;3.67;;;;;;;;;;5026301;28;20189;-79
2021/03/29 07:34:52;;;;;;;5.00;3.28;;;;;;;;;;4995760;28;20183;-79
2021/03/29 07:37:32;;;;;;;5.25;3.83;;;;;;;;;;4994784;28;20202;-79
2021/03/29 07:40:18;;;;;;;6.55;3.92;;;;;;;;;;4997681;28;20253;-79
2021/03/29 07:42:45;;;;;;;6.13;4.90;;;;;;;;;;5002819;28;20254;-79
2021/03/29 07:45:13;;;;;;;6.80;3.55;;;;;;;;;;5019185;28;20258;-79
2021/03/29 07:47:42;;;;;;;6.80;4.03;;;;;;;;;;5006207;28;20213;-79
2021/03/29 07:50:10;;;;;;;8.60;4.85;;;;;;;;;;5016055;28;20190;-79
2021/03/29 07:52:39;;;;;;;9.07;4.40;;;;;;;;;;4993577;28;20187;-78
2021/03/29 07:55:26;;;;;;;11.30;5.32;;;;;;;;;;4999969;28;20402;-79
2021/03/29 07:57:52;;;;;;;7.05;5.13;;;;;;;;;;5003072;28;20190;-78
2021/03/29 08:00:29;;;;;;;6.30;4.35;;;;;;;;;;5007771;28;20267;-78
2021/03/29 08:02:56;;;;;;;6.53;5.13;;;;;;;;;;5014011;28;20187;-79
2021/03/29 08:05:41;;;;;;;10.43;4.25;;;;;;;;;;5026406;28;20221;-78
2021/03/29 08:08:25;;;;;;;13.02;5.30;;;;;;;;;;5016835;28;20178;-78
2021/03/29 08:10:59;;;;;;;7.60;5.25;;;;;;;;;;5002283;28;20688;-79
2021/03/29 08:13:47;;;;;;;9.02;4.47;;;;;;;;;;5003753;28;20226;-79
2021/03/29 08:16:13;;;;;;;8.10;5.03;;;;;;;;;;4993500;28;20182;-79
2021/03/29 08:18:58;;;;;;;6.30;3.93;;;;;;;;;;4993539;28;20186;-79
2021/03/29 08:21:42;;;;;;;10.32;4.20;;;;;;;;;;5008329;28;20467;-80
2021/03/29 08:24:16;;;;;;;6.63;3.63;;;;;;;;;;4993005;28;20218;-82
2021/03/29 08:26:44;;;;;;;9.90;5.00;;;;;;;;;;4995086;28;20188;-80
2021/03/29 08:29:11;;;;;;;6.63;3.83;;;;;;;;;;5008420;28;20248;-80
2021/03/29 08:31:56;;;;;;;9.73;3.40;;;;;;;;;;5008875;28;20184;-82
2021/03/29 08:34:22;;;;;;;5.93;2.58;;;;;;;;;;4997107;28;20208;-80
2021/03/29 08:36:48;;;;;;;6.63;2.58;;;;;;;;;;4997361;28;20192;-83
2021/03/29 08:39:16;;;;;;;3.00;1.58;;;;;;;;;;5005865;28;20656;-81
2021/03/29 08:41:43;;;;;;;6.88;2.60;;;;;;;;;;5012034;28;20229;-81
2021/03/29 08:44:10;;;;;;;4.78;2.10;;;;;;;;;;5003062;28;20180;-82
2021/03/29 08:46:37;;;;;;;5.22;2.30;;;;;;;;;;5005544;28;20171;-83
2021/03/29 08:49:07;;;;;;;4.05;2.47;;;;;;;;;;5001109;28;20179;-84
2021/03/29 08:51:33;;;;;;;7.32;2.25;;;;;;;;;;5004547;28;20229;-82
2021/03/29 08:54:06;;;;;;;5.28;1.70;;;;;;;;;;5004628;28;20183;-84
2021/03/29 08:56:54;;;;;;;4.10;1.92;;;;;;;;;;5005633;28;20667;-82
2021/03/29 08:59:26;;;;;;;4.00;1.98;;;;;;;;;;5001967;28;20190;-83
2021/03/29 09:01:53;;;;;;;4.15;1.80;;;;;;;;;;5005001;28;20227;-82
2021/03/29 09:04:19;;;;;;;2.33;2.10;;;;;;;;;;4999407;28;20312;-83
2021/03/29 09:06:45;;;;;;;4.47;2.05;;;;;;;;;;5001762;28;20180;-82
2021/03/29 09:09:14;;;;;;;4.72;2.50;;;;;;;;;;5001753;28;20180;-82
2021/03/29 09:11:45;;;;;;;3.15;1.60;;;;;;;;;;5000596;28;20230;-81
2021/03/29 09:14:11;;;;;;;4.50;2.30;;;;;;;;;;5012287;28;20191;-81
2021/03/29 09:16:38;;;;;;;4.25;2.10;;;;;;;;;;5002597;28;20191;-82
2021/03/29 09:19:12;;;;;;;6.72;1.98;;;;;;;;;;5003915;28;20235;-82
2021/03/29 09:21:39;;;;;;;2.83;1.85;;;;;;;;;;4999358;28;20208;-83
2021/03/29 09:24:15;;;;;;;2.28;1.60;;;;;;;;;;5004168;28;20196;-82
2021/03/29 09:26:41;;;;;;;4.93;2.10;;;;;;;;;;5009707;28;20649;-82
2021/03/29 09:29:19;;;;;;;3.17;1.55;;;;;;;;;;5005666;28;20179;-82
2021/03/29 09:31:46;;;;;;;4.40;1.95;;;;;;;;;;4998115;28;20178;-83
2021/03/29 09:34:13;;;;;;;2.40;1.90;;;;;;;;;;5000469;28;20191;-84
2021/03/29 09:36:39;;;;;;;5.35;2.95;;;;;;;;;;4998919;28;20205;-84
2021/03/29 09:40:47;;;;;;;6.18;2.38;;;;;;;;;;5036870;27;20618;-82
2021/03/29 09:43:21;;;;;;;7.45;3.28;;;;;;;;;;5034739;28;20181;-86
2021/03/29 09:45:47;;;;;;;6.82;2.40;;;;;;;;;;5047966;28;20302;-83
2021/03/29 09:48:13;;;;;;;18.52;3.20;;;;;;;;;;5052996;28;20174;-81
2021/03/29 09:50:41;;;;;;;5.95;2.60;;;;;;;;;;5042609;28;20268;-82
2021/03/29 09:53:23;;;;;;;7.38;2.15;;;;;;;;;;5056498;28;20197;-84
2021/03/29 09:55:50;;;;;;;5.25;1.80;;;;;;;;;;5050357;28;20197;-83
2021/03/29 09:58:24;;;;;;;21.80;4.07;;;;;;;;;;5030680;28;20194;-83
2021/03/29 10:00:52;;;;;;;1.98;1.67;;;;;;;;;;5044358;28;20551;-83
2021/03/29 10:03:18;;;;;;;2.42;1.88;;;;;;;;;;5037236;28;20235;-83
2021/03/29 10:05:45;;;;;;;4.05;2.13;;;;;;;;;;5050661;28;20191;-82
2021/03/29 10:08:13;;;;;;;3.58;1.98;;;;;;;;;;5030848;28;20189;-82
2021/03/29 10:10:40;;;;;;;7.68;2.03;;;;;;;;;;5027212;28;20540;-83
2021/03/29 10:13:13;;;;;;;3.40;1.60;;;;;;;;;;5047405;28;20194;-82
2021/03/29 10:15:40;;;;;;;7.18;2.30;;;;;;;;;;5039951;28;20446;-82
2021/03/29 10:18:07;;;;;;;6.38;2.30;;;;;;;;;;5035428;28;20193;-81
2021/03/29 10:20:36;;;;;;;3.60;2.38;;;;;;;;;;5028731;28;20209;-81
2021/03/29 10:23:21;;;;;;;4.53;1.90;;;;;;;;;;5036883;28;20192;-83
2021/03/29 10:26:07;;;;;;;2.28;1.63;;;;;;;;;;5034373;28;20186;-82
2021/03/29 10:28:33;;;;;;;4.38;1.60;;;;;;;;;;5029095;28;20647;-82
2021/03/29 10:30:59;;;;;;;9.73;2.17;;;;;;;;;;5032263;28;20201;-82
2021/03/29 10:33:25;;;;;;;5.40;2.10;;;;;;;;;;5032673;28;20182;-85
2021/03/29 10:35:51;;;;;;;3.03;1.93;;;;;;;;;;5047085;28;20452;-83
2021/03/29 10:38:17;;;;;;;5.17;2.20;;;;;;;;;;5036129;28;20831;-84
2021/03/29 10:40:43;;;;;;;3.00;2.20;;;;;;;;;;5048882;28;20492;-84
2021/03/29 10:43:10;;;;;;;2.13;1.83;;;;;;;;;;5031146;28;20446;-85
2021/03/29 10:45:36;;;;;;;3.72;1.70;;;;;;;;;;5033433;28;20487;-82
2021/03/29 10:48:02;;;;;;;2.25;1.75;;;;;;;;;;5033970;28;20269;-84
2021/03/29 10:50:28;;;;;;;3.30;1.58;;;;;;;;;;5028525;28;20207;-81
2021/03/29 10:52:54;;;;;;;3.35;2.00;;;;;;;;;;5034777;28;20171;-83
2021/03/29 10:55:21;;;;;;;4.73;2.20;;;;;;;;;;5017077;28;20588;-80
2021/03/29 10:57:47;;;;;;;2.88;1.50;;;;;;;;;;5018425;28;20461;-81
2021/03/29 11:00:13;;;;;;;3.50;1.95;;;;;;;;;;5022067;28;20206;-84
2021/03/29 11:02:39;;;;;;;4.28;1.67;;;;;;;;;;5018074;28;20193;-84
2021/03/29 11:05:06;;;;;;;1.67;1.40;;;;;;;;;;5036273;28;20179;-82
2021/03/29 11:07:32;;;;;;;2.17;1.40;;;;;;;;;;5020460;28;20268;-82
2021/03/29 11:09:58;;;;;;;2.90;1.83;;;;;;;;;;5021455;28;20721;-83
2021/03/29 11:12:24;;;;;;;4.20;1.77;;;;;;;;;;5022120;28;20441;-83
2021/03/29 11:14:50;;;;;;;7.50;1.73;;;;;;;;;;5022329;28;20461;-80
2021/03/29 11:17:17;;;;;;;2.33;1.93;;;;;;;;;;5020139;28;20410;-83
2021/03/29 11:19:43;;;;;;;2.65;1.63;;;;;;;;;;5038144;28;20476;-83
2021/03/29 11:22:09;;;;;;;1.77;1.30;;;;;;;;;;5016486;28;20183;-84
2021/03/29 11:24:35;;;;;;;4.77;1.90;;;;;;;;;;5019147;28;20434;-84
2021/03/29 11:27:01;;;;;;;2.35;1.65;;;;;;;;;;5035489;28;20468;-82
2021/03/29 11:29:29;;;;;;;2.20;1.77;;;;;;;;;;5019054;28;20179;-82
2021/03/29 11:31:55;;;;;;;2.10;1.50;;;;;;;;;;5039377;28;20174;-82
2021/03/29 11:34:21;;;;;;;3.20;1.65;;;;;;;;;;5017443;28;20183;-81
2021/03/29 11:36:47;;;;;;;3.58;1.25;;;;;;;;;;5017498;28;20274;-82
2021/03/29 11:39:13;;;;;;;3.63;1.80;;;;;;;;;;5021282;28;20260;-81
2021/03/29 11:41:39;;;;;;;4.65;2.00;;;;;;;;;;5022295;28;20798;-81
2021/03/29 11:44:06;;;;;;;3.85;2.40;;;;;;;;;;5020819;28;20175;-84
2021/03/29 11:46:32;;;;;;;4.68;1.70;;;;;;;;;;5017452;28;20174;-82
2021/03/29 11:48:58;;;;;;;5.65;2.13;;;;;;;;;;5032025;28;20187;-84
2021/03/29 11:51:24;;;;;;;3.13;1.70;;;;;;;;;;5037023;28;20187;-83
2021/03/29 11:53:50;;;;;;;3.00;1.80;;;;;;;;;;5036160;28;20198;-83
2021/03/29 11:56:16;;;;;;;3.35;2.38;;;;;;;;;;5033815;28;20368;-83
2021/03/29 11:58:45;;;;;;;2.90;1.70;;;;;;;;;;5039317;28;20202;-82
2021/03/29 12:01:18;;;;;;;4.23;1.77;;;;;;;;;;5017699;28;20437;-84
2021/03/29 12:03:49;;;;;;;3.80;1.60;;;;;;;;;;5019164;28;20436;-83
2021/03/29 12:06:23;;;;;;;2.80;1.63;;;;;;;;;;5035806;28;20459;-80
2021/03/29 12:08:53;;;;;;;2.37;1.40;;;;;;;;;;5032361;28;20509;-79
2021/03/29 12:14:07;;;;;;;2.77;1.90;;;;;;;;;;5019721;28;20419;-79
2021/03/29 12:16:38;;;;;;;2.80;1.63;;;;;;;;;;5016151;28;20420;-83
2021/03/29 12:19:05;;;;;;;2.30;1.77;;;;;;;;;;5015830;28;20491;-80
2021/03/29 12:21:35;;;;;;;4.37;1.97;;;;;;;;;;5018368;28;20444;-79
2021/03/29 12:24:03;;;;;;;5.63;2.20;;;;;;;;;;5033980;28;20410;-80
2021/03/29 12:26:30;;;;;;;2.73;1.77;;;;;;;;;;5017914;28;20419;-81
2021/03/29 12:28:59;;;;;;;3.30;1.80;;;;;;;;;;5033259;28;20432;-80
2021/03/29 12:31:25;;;;;;;3.20;1.90;;;;;;;;;;5018493;28;20524;-81
2021/03/29 12:33:52;;;;;;;1.60;1.50;;;;;;;;;;5016780;28;21016;-80
2021/03/29 12:36:19;;;;;;;2.80;1.80;;;;;;;;;;5021281;28;20922;-79
2021/03/29 12:39:33;;;;;;;3.60;2.47;;;;;;;;;;5035693;28;20505;-81
2021/03/29 12:41:40;;;;;;;2.80;1.83;;;;;;;;;;5015839;28;20450;-85
2021/03/29 12:44:11;;;;;;;3.27;2.13;;;;;;;;;;5019631;28;20425;-80
2021/03/29 12:46:38;;;;;;;2.33;1.60;;;;;;;;;;5033181;28;20439;-81
2021/03/29 12:49:09;;;;;;;1.80;1.43;;;;;;;;;;5015715;28;20438;-81
2021/03/29 12:51:35;;;;;;;2.50;1.50;;;;;;;;;;5017120;28;20437;-81
2021/03/29 12:54:11;;;;;;;3.23;1.77;;;;;;;;;;5018211;28;20449;-82
2021/03/29 12:56:38;;;;;;;4.50;2.00;;;;;;;;;;5020897;28;20836;-81
2021/03/29 12:59:04;;;;;;;4.93;1.97;;;;;;;;;;5021683;28;20519;-82
2021/03/29 13:01:31;;;;;;;2.03;1.90;;;;;;;;;;5018900;28;20498;-82
2021/03/29 13:03:58;;;;;;;3.23;2.30;;;;;;;;;;5017250;28;20436;-85
2021/03/29 13:06:31;;;;;;;2.50;2.00;;;;;;;;;;5020377;28;20922;-80
2021/03/29 13:09:03;;;;;;;2.07;1.80;;;;;;;;;;5029771;28;20564;-81
2021/03/29 13:11:33;;;;;;;2.47;2.27;;;;;;;;;;5019664;28;20509;-82
2021/03/29 13:14:00;;;;;;;3.10;1.83;;;;;;;;;;5017920;28;20421;-83
2021/03/29 13:16:26;;;;;;;2.13;1.90;;;;;;;;;;5017038;28;20778;-82
2021/03/29 13:18:52;;;;;;;1.80;1.70;;;;;;;;;;5029477;28;20471;-82
2021/03/29 13:21:19;;;;;;;2.80;2.10;;;;;;;;;;5010706;28;20939;-81
2021/03/29 13:23:45;;;;;;;4.63;2.37;;;;;;;;;;5026027;28;20445;-80
2021/03/29 13:26:17;;;;;;;3.07;2.13;;;;;;;;;;5030669;28;20429;-81
2021/03/29 13:28:44;;;;;;;3.27;2.73;;;;;;;;;;5031674;28;20437;-83
2021/03/29 13:31:10;;;;;;;2.10;2.00;;;;;;;;;;5033141;28;20449;-82
2021/03/29 13:33:36;;;;;;;2.80;2.60;;;;;;;;;;5016203;28;20876;-80
2021/03/29 13:36:02;;;;;;;3.07;2.10;;;;;;;;;;5017654;28;20445;-80
2021/03/29 13:38:28;;;;;;;2.50;2.40;;;;;;;;;;5014375;28;20584;-80
2021/03/29 13:40:54;;;;;;;2.80;2.37;;;;;;;;;;5031475;28;20440;-80
2021/03/29 13:44:33;;;;;;;2.23;2.03;;;;;;;;;;5076966;28;20624;-82
2021/03/29 13:46:59;;;;;;;2.20;1.93;;;;;;;;;;5071106;28;20439;-81
2021/03/29 13:49:27;;;;;;;2.33;1.93;;;;;;;;;;5074612;28;20485;-81
2021/03/29 13:51:54;;;;;;;3.23;1.97;;;;;;;;;;5070806;28;20498;-79
2021/03/29 13:54:20;;;;;;;2.00;1.80;;;;;;;;;;5073882;28;20466;-80
2021/03/29 13:56:46;;;;;;;2.23;1.90;;;;;;;;;;5074549;28;20471;-81
2021/03/29 13:59:12;;;;;;;2.30;1.60;;;;;;;;;;5068588;28;20490;-79
2021/03/29 14:01:39;;;;;;;2.50;1.40;;;;;;;;;;5072609;28;20450;-80
2021/03/29 14:04:06;;;;;;;1.60;1.50;;;;;;;;;;5070669;28;20494;-82
2021/03/29 14:06:32;;;;;;;2.03;1.70;;;;;;;;;;5072958;28;20473;-80
2021/03/29 14:08:58;;;;;;;3.87;1.90;;;;;;;;;;5088591;28;20440;-81
2021/03/29 14:11:24;;;;;;;2.77;1.70;;;;;;;;;;5073617;28;20423;-83
2021/03/29 14:13:50;;;;;;;2.00;1.80;;;;;;;;;;5071336;28;20477;-82
2021/03/29 14:16:16;;;;;;;1.97;1.73;;;;;;;;;;5074672;28;20426;-80
2021/03/29 14:18:43;;;;;;;5.20;1.70;;;;;;;;;;5071756;28;20543;-80
2021/03/29 14:21:14;;;;;;;1.80;1.70;;;;;;;;;;5088505;28;20435;-80
2021/03/29 14:23:40;;;;;;;3.63;1.57;;;;;;;;;;5070789;28;20466;-80
2021/03/29 14:26:07;;;;;;;2.37;1.40;;;;;;;;;;5078263;28;20421;-81
2021/03/29 14:28:32;;;;;;;2.03;1.73;;;;;;;;;;5072265;28;20704;-81
2021/03/29 14:30:59;;;;;;;4.27;1.90;;;;;;;;;;5072728;28;20880;-81
2021/03/29 14:33:25;;;;;;;3.90;1.47;;;;;;;;;;5073587;28;20426;-81
2021/03/29 14:38:44;;;;;;;3.83;1.50;;;;;;;;;;5075565;28;20531;-81
2021/03/29 14:41:36;;;;;;;2.33;1.57;;;;;;;;;;5075235;28;20657;-81
2021/03/29 14:46:28;;;;;;;1.70;1.60;;;;;;;;;;5073856;28;20443;-81
2021/03/29 14:48:54;;;;;;;2.80;1.70;;;;;;;;;;5074041;28;20437;-81
2021/03/29 14:51:20;;;;;;;3.30;1.57;;;;;;;;;;5074996;28;20431;-81
2021/03/29 14:53:46;;;;;;;2.43;1.47;;;;;;;;;;5070515;28;20425;-80
2021/03/29 14:56:12;;;;;;;4.77;1.57;;;;;;;;;;5061660;28;20407;-80
2021/03/29 14:58:38;;;;;;;2.93;1.53;;;;;;;;;;5063481;28;20405;-81
2021/03/29 15:01:05;;;;;;;2.40;1.70;;;;;;;;;;5059488;28;20444;-80